createdAt,value
2017-09-21T00:01:58.309Z,79.50
2017-09-21T00:04:25.819Z,79.50
2017-09-21T00:06:54.146Z,79.30
2017-09-21T00:09:21.710Z,79.30
2017-09-21T00:11:49.227Z,79.20
2017-09-21T00:14:16.789Z,79.10
2017-09-21T00:16:44.292Z,79.00
2017-09-21T00:19:11.807Z,79.00
2017-09-21T00:21:39.323Z,79.60
2017-09-21T00:24:06.848Z,79.00
2017-09-21T00:26:34.350Z,78.90
2017-09-21T00:29:02.862Z,79.00
2017-09-21T00:31:30.372Z,79.00
2017-09-21T00:33:57.880Z,79.10
2017-09-21T00:36:25.464Z,79.30
2017-09-21T00:38:52.971Z,79.40
2017-09-21T00:41:21.274Z,79.40
2017-09-21T00:43:48.780Z,79.30
2017-09-21T00:46:16.340Z,79.30
2017-09-21T00:48:44.669Z,79.20
2017-09-21T00:51:12.323Z,79.20
2017-09-21T00:53:39.835Z,79.20
2017-09-21T00:56:07.441Z,79.40
2017-09-21T00:58:34.971Z,79.50
2017-09-21T01:01:03.255Z,79.20
2017-09-21T01:03:30.784Z,79.10
2017-09-21T01:05:58.306Z,79.10
2017-09-21T01:08:25.827Z,79.10
2017-09-21T01:10:53.352Z,79.10
2017-09-21T01:13:21.070Z,78.90
2017-09-21T01:15:48.604Z,78.90
2017-09-21T01:18:16.129Z,78.90
2017-09-21T01:20:43.773Z,79.10
2017-09-21T01:23:11.291Z,79.10
2017-09-21T01:25:39.807Z,79.10
2017-09-21T01:28:07.309Z,79.30
2017-09-21T01:30:34.847Z,78.90
2017-09-21T01:33:03.127Z,79.00
2017-09-21T01:35:31.431Z,79.00
2017-09-21T01:37:58.939Z,78.90
2017-09-21T01:40:26.515Z,79.00
2017-09-21T01:42:54.808Z,79.00
2017-09-21T01:45:23.127Z,78.80
2017-09-21T01:47:50.662Z,78.70
2017-09-21T01:50:18.183Z,78.40
2017-09-21T01:52:46.500Z,78.10
2017-09-21T01:55:14.014Z,78.10
2017-09-21T01:57:42.331Z,77.80
2017-09-21T02:00:09.860Z,77.80
2017-09-21T02:02:38.159Z,77.70
2017-09-21T02:05:05.721Z,77.50
2017-09-21T02:07:33.283Z,77.60
2017-09-21T02:10:00.795Z,77.70
2017-09-21T02:12:29.121Z,77.80
2017-09-21T02:14:56.662Z,77.70
2017-09-21T02:17:24.247Z,77.80
2017-09-21T02:19:51.788Z,77.90
2017-09-21T02:22:19.308Z,78.00
2017-09-21T02:24:47.613Z,78.20
2017-09-21T02:27:15.155Z,78.20
2017-09-21T02:29:42.702Z,78.20
2017-09-21T02:32:10.979Z,78.10
2017-09-21T02:34:39.281Z,78.10
2017-09-21T02:37:06.783Z,78.10
2017-09-21T02:39:34.296Z,78.00
2017-09-21T02:42:01.831Z,78.00
2017-09-21T02:44:30.113Z,78.20
2017-09-21T02:46:57.665Z,78.20
2017-09-21T02:49:25.175Z,78.20
2017-09-21T02:51:52.731Z,78.20
2017-09-21T02:54:20.260Z,78.40
2017-09-21T02:56:47.786Z,78.30
2017-09-21T02:59:16.089Z,78.50
2017-09-21T03:01:43.603Z,78.50
2017-09-21T03:04:11.907Z,78.50
2017-09-21T03:06:39.427Z,78.50
2017-09-21T03:09:06.952Z,78.50
2017-09-21T03:11:34.475Z,78.60
2017-09-21T03:14:02.019Z,78.70
2017-09-21T03:16:30.298Z,78.90
2017-09-21T03:18:58.597Z,79.00
2017-09-21T03:21:26.119Z,79.00
2017-09-21T03:23:54.428Z,79.20
2017-09-21T03:26:22.000Z,79.10
2017-09-21T03:28:49.631Z,79.30
2017-09-21T03:31:17.160Z,79.40
2017-09-21T03:33:44.675Z,79.50
2017-09-21T03:36:12.203Z,79.60
2017-09-21T03:38:40.500Z,79.80
2017-09-21T03:41:08.053Z,79.80
2017-09-21T03:43:35.567Z,79.90
2017-09-21T03:46:03.072Z,79.90
2017-09-21T03:48:30.656Z,80.00
2017-09-21T03:50:58.175Z,80.00
2017-09-21T03:53:25.704Z,80.00
2017-09-21T03:55:53.986Z,80.30
2017-09-21T03:58:22.277Z,81.40
2017-09-21T04:00:49.800Z,81.40
2017-09-21T04:03:17.322Z,81.50
2017-09-21T04:05:44.821Z,81.60
2017-09-21T04:08:12.436Z,81.80
2017-09-21T04:10:39.939Z,82.00
2017-09-21T04:13:08.247Z,81.90
2017-09-21T04:15:35.779Z,81.90
2017-09-21T04:18:04.056Z,82.00
2017-09-21T04:20:32.359Z,82.00
2017-09-21T04:22:59.870Z,82.00
2017-09-21T04:25:27.391Z,82.00
2017-09-21T04:27:54.924Z,81.60
2017-09-21T04:30:22.459Z,82.20
2017-09-21T04:32:50.733Z,82.40
2017-09-21T04:35:19.023Z,82.20
2017-09-21T04:37:47.308Z,82.20
2017-09-21T04:40:14.871Z,82.20
2017-09-21T04:42:42.391Z,82.10
2017-09-21T04:45:10.674Z,82.10
2017-09-21T04:47:38.974Z,82.00
2017-09-21T04:50:06.498Z,81.90
2017-09-21T04:52:34.816Z,82.00
2017-09-21T04:55:02.336Z,82.00
2017-09-21T04:57:30.644Z,82.10
2017-09-21T04:59:58.143Z,82.10
2017-09-21T05:02:25.696Z,82.00
2017-09-21T05:04:53.188Z,82.70
2017-09-21T05:07:21.459Z,81.90
2017-09-21T05:09:49.765Z,81.90
2017-09-21T05:12:17.280Z,81.90
2017-09-21T05:14:44.816Z,81.90
2017-09-21T05:17:12.341Z,81.90
2017-09-21T05:19:39.872Z,81.90
2017-09-21T05:22:08.146Z,81.80
2017-09-21T05:24:36.430Z,81.70
2017-09-21T05:27:04.024Z,81.70
2017-09-21T05:29:31.560Z,81.60
2017-09-21T05:31:59.066Z,81.60
2017-09-21T05:34:26.579Z,81.60
2017-09-21T05:36:54.103Z,81.40
2017-09-21T05:39:22.387Z,81.40
2017-09-21T05:41:50.687Z,81.10
2017-09-21T05:44:18.209Z,81.10
2017-09-21T05:46:46.500Z,80.90
2017-09-21T05:49:14.034Z,80.90
2017-09-21T05:51:42.371Z,80.80
2017-09-21T05:54:09.881Z,80.70
2017-09-21T05:56:38.216Z,80.80
2017-09-21T05:59:05.819Z,80.80
2017-09-21T06:01:34.093Z,81.00
2017-09-21T06:04:02.392Z,80.80
2017-09-21T06:06:29.907Z,80.80
2017-09-21T06:08:58.249Z,80.20
2017-09-21T06:11:25.752Z,80.20
2017-09-21T06:13:54.048Z,79.70
2017-09-21T06:16:21.554Z,79.70
2017-09-21T06:18:49.114Z,79.40
2017-09-21T06:21:16.643Z,79.20
2017-09-21T06:23:44.167Z,79.00
2017-09-21T06:26:12.578Z,77.70
2017-09-21T06:28:40.095Z,78.70
2017-09-21T06:31:08.405Z,77.50
2017-09-21T06:33:35.922Z,77.50
2017-09-21T06:36:04.259Z,77.40
2017-09-21T06:38:31.802Z,77.40
2017-09-21T06:40:59.354Z,77.40
2017-09-21T06:43:26.886Z,77.50
2017-09-21T06:45:54.401Z,77.50
2017-09-21T06:48:22.028Z,77.60
2017-09-21T06:50:49.556Z,77.60
2017-09-21T06:53:17.104Z,77.30
2017-09-21T06:55:45.402Z,76.50
2017-09-21T06:58:12.991Z,76.50
2017-09-21T07:00:40.494Z,76.40
2017-09-21T07:03:08.791Z,76.10
2017-09-21T07:05:36.337Z,76.20
2017-09-21T07:08:03.861Z,76.00
2017-09-21T07:10:31.398Z,75.70
2017-09-21T07:12:59.042Z,75.60
2017-09-21T07:15:26.578Z,75.20
2017-09-21T07:17:54.322Z,75.10
2017-09-21T07:20:22.679Z,75.10
2017-09-21T07:22:50.197Z,75.10
2017-09-21T07:25:17.711Z,75.30
2017-09-21T07:27:46.013Z,75.20
2017-09-21T07:30:13.524Z,75.20
2017-09-21T07:32:41.067Z,75.20
2017-09-21T07:35:08.588Z,75.30
2017-09-21T07:37:36.127Z,75.20
2017-09-21T07:40:03.708Z,75.00
2017-09-21T07:42:31.402Z,74.70
2017-09-21T07:44:58.941Z,74.50
2017-09-21T07:47:26.457Z,74.40
2017-09-21T07:49:54.753Z,74.00
2017-09-21T07:52:22.911Z,74.00
2017-09-21T07:54:50.462Z,73.90
2017-09-21T07:57:18.804Z,73.40
2017-09-21T07:59:46.348Z,73.40
2017-09-21T08:02:13.869Z,73.00
2017-09-21T08:04:41.421Z,72.80
2017-09-21T08:07:08.956Z,72.80
2017-09-21T08:09:37.231Z,72.60
2017-09-21T08:12:05.640Z,72.60
2017-09-21T08:14:33.166Z,72.60
2017-09-21T08:17:01.483Z,72.10
2017-09-21T08:19:29.003Z,72.10
2017-09-21T08:21:57.309Z,71.30
2017-09-21T08:24:24.839Z,71.30
2017-09-21T08:26:53.161Z,70.60
2017-09-21T08:29:20.694Z,70.60
2017-09-21T08:31:48.222Z,70.00
2017-09-21T08:34:16.527Z,69.20
2017-09-21T08:36:44.047Z,69.20
2017-09-21T08:39:11.578Z,69.30
2017-09-21T08:41:39.239Z,69.80
2017-09-21T08:44:06.772Z,70.00
2017-09-21T08:46:34.308Z,69.90
2017-09-21T08:49:01.887Z,69.50
2017-09-21T08:51:29.411Z,68.90
2017-09-21T08:53:57.697Z,68.20
2017-09-21T08:56:25.233Z,68.10
2017-09-21T08:58:53.527Z,67.70
2017-09-21T09:01:21.827Z,67.50
2017-09-21T09:03:49.349Z,66.70
2017-09-21T09:06:17.654Z,65.70
2017-09-21T09:08:45.162Z,65.70
2017-09-21T09:11:12.735Z,65.10
2017-09-21T09:13:41.002Z,63.90
2017-09-21T09:16:08.520Z,63.80
2017-09-21T09:18:36.060Z,63.10
2017-09-21T09:21:03.616Z,62.40
2017-09-21T09:23:31.158Z,61.40
2017-09-21T09:25:59.453Z,60.90
2017-09-21T09:28:27.060Z,60.90
2017-09-21T09:30:54.643Z,61.30
2017-09-21T09:33:22.954Z,61.60
2017-09-21T09:35:50.478Z,61.60
2017-09-21T09:38:18.803Z,59.50
2017-09-21T09:40:46.352Z,59.50
2017-09-21T09:43:13.903Z,58.20
2017-09-21T09:45:41.492Z,58.50
2017-09-21T09:48:09.029Z,58.50
2017-09-21T09:50:36.662Z,58.20
2017-09-21T09:53:04.183Z,58.50
2017-09-21T09:55:31.691Z,58.20
2017-09-21T09:57:59.272Z,57.40
2017-09-21T10:00:26.828Z,57.10
2017-09-21T10:02:54.352Z,57.00
2017-09-21T10:05:21.879Z,56.80
2017-09-21T10:07:50.171Z,56.60
2017-09-21T10:10:17.712Z,56.60
2017-09-21T10:12:45.328Z,56.30
2017-09-21T10:15:12.975Z,56.30
2017-09-21T10:17:40.493Z,56.40
2017-09-21T10:20:08.828Z,55.70
2017-09-21T10:22:36.427Z,55.60
2017-09-21T10:25:04.744Z,54.50
2017-09-21T10:27:32.298Z,54.50
2017-09-21T10:29:59.883Z,54.40
2017-09-21T10:32:27.398Z,53.60
2017-09-21T10:34:54.952Z,53.30
2017-09-21T10:37:22.509Z,53.80
2017-09-21T10:39:50.038Z,54.30
2017-09-21T10:42:17.565Z,52.80
2017-09-21T10:44:45.083Z,53.00
2017-09-21T10:47:12.899Z,53.20
2017-09-21T10:49:40.430Z,52.10
2017-09-21T10:52:07.940Z,51.20
2017-09-21T10:54:36.235Z,51.50
2017-09-21T10:57:03.739Z,51.50
2017-09-21T10:59:31.259Z,50.60
2017-09-21T11:01:58.786Z,51.00
2017-09-21T11:04:27.125Z,51.50
2017-09-21T11:06:54.641Z,51.50
2017-09-21T11:09:22.178Z,51.60
2017-09-21T11:11:50.472Z,51.50
2017-09-21T11:14:18.000Z,51.50
2017-09-21T11:16:45.531Z,51.80
2017-09-21T11:19:13.051Z,52.10
2017-09-21T11:21:40.576Z,52.20
2017-09-21T11:24:08.882Z,51.90
2017-09-21T11:26:36.405Z,51.70
2017-09-21T11:29:03.968Z,51.60
2017-09-21T11:31:32.311Z,51.00
2017-09-21T11:33:59.835Z,50.90
2017-09-21T11:36:27.346Z,51.00
2017-09-21T11:38:54.869Z,50.70
2017-09-21T11:41:22.434Z,50.80
2017-09-21T11:43:50.024Z,50.50
2017-09-21T11:46:17.547Z,49.80
2017-09-21T11:48:45.121Z,49.90
2017-09-21T11:51:12.642Z,49.80
2017-09-21T11:53:40.281Z,49.30
2017-09-21T11:56:07.811Z,49.70
2017-09-21T11:58:35.339Z,49.90
2017-09-21T12:01:02.887Z,48.80
2017-09-21T12:03:30.503Z,47.70
2017-09-21T12:05:58.794Z,47.10
2017-09-21T12:08:26.350Z,47.00
2017-09-21T12:10:53.904Z,46.50
2017-09-21T12:13:22.270Z,43.30
2017-09-21T12:15:50.606Z,42.00
2017-09-21T12:18:18.115Z,41.90
2017-09-21T12:20:46.630Z,40.40
2017-09-21T12:23:14.152Z,40.30
2017-09-21T12:25:41.699Z,40.10
2017-09-21T12:28:10.006Z,39.30
2017-09-21T12:30:37.562Z,39.30
2017-09-21T12:33:05.102Z,39.80
2017-09-21T12:35:33.381Z,37.60
2017-09-21T12:38:00.901Z,37.60
2017-09-21T12:40:28.425Z,38.00
2017-09-21T12:42:55.983Z,38.80
2017-09-21T12:45:23.495Z,39.70
2017-09-21T12:47:51.784Z,40.30
2017-09-21T12:50:19.697Z,40.20
2017-09-21T12:52:47.246Z,40.70
2017-09-21T12:55:14.780Z,41.80
2017-09-21T12:57:42.314Z,41.90
2017-09-21T13:00:10.750Z,42.70
2017-09-21T13:02:38.376Z,42.60
2017-09-21T13:05:05.913Z,42.40
2017-09-21T13:07:34.231Z,35.20
2017-09-21T13:10:01.822Z,35.10
2017-09-21T13:12:29.561Z,33.80
2017-09-21T13:14:57.130Z,32.00
2017-09-21T13:17:24.695Z,30.00
2017-09-21T13:19:52.437Z,29.50
2017-09-21T13:22:19.968Z,26.90
2017-09-21T13:24:47.482Z,24.80
2017-09-21T13:27:15.008Z,23.30
2017-09-21T13:29:42.539Z,21.50
2017-09-21T13:32:10.198Z,21.60
2017-09-21T13:34:37.719Z,21.30
2017-09-21T13:37:06.033Z,19.20
2017-09-21T13:39:33.555Z,19.10
2017-09-21T13:42:01.836Z,18.40
2017-09-21T13:44:30.130Z,18.00
2017-09-21T13:46:57.641Z,17.90
2017-09-21T13:49:25.172Z,17.50
2017-09-21T13:51:52.688Z,17.30
2017-09-21T13:54:21.051Z,16.40
2017-09-21T13:56:49.359Z,16.40
2017-09-21T13:59:16.922Z,16.40
2017-09-21T14:01:44.435Z,16.00
2017-09-21T14:04:11.967Z,15.70
2017-09-21T14:06:39.521Z,15.60
2017-09-21T14:09:07.051Z,15.70
2017-09-21T14:11:34.624Z,15.80
2017-09-21T14:14:02.135Z,15.70
2017-09-21T14:16:30.434Z,15.70
2017-09-21T14:18:57.938Z,15.70
2017-09-21T14:21:25.487Z,16.10
2017-09-21T14:23:52.982Z,16.50
2017-09-21T14:26:21.298Z,18.10
2017-09-21T14:28:50.070Z,18.10
2017-09-21T14:31:18.803Z,18.60
2017-09-21T14:33:46.325Z,19.80
2017-09-21T14:36:13.849Z,20.20
2017-09-21T14:38:42.161Z,20.70
2017-09-21T14:41:09.689Z,20.70
2017-09-21T14:43:37.967Z,20.70
2017-09-21T14:46:06.244Z,21.10
2017-09-21T14:48:33.799Z,21.00
2017-09-21T14:51:02.067Z,22.70
2017-09-21T14:53:30.343Z,22.90
2017-09-21T14:55:58.636Z,23.00
2017-09-21T14:58:26.146Z,23.00
2017-09-21T15:00:53.679Z,22.90
2017-09-21T15:03:21.192Z,23.30
2017-09-21T15:05:49.488Z,24.60
2017-09-21T15:08:16.982Z,24.50
2017-09-21T15:10:44.779Z,24.90
2017-09-21T15:13:13.195Z,24.80
2017-09-21T15:15:40.726Z,24.80
2017-09-21T15:18:09.016Z,26.60
2017-09-21T15:20:36.531Z,26.60
2017-09-21T15:23:04.059Z,27.30
2017-09-21T15:25:31.584Z,28.10
2017-09-21T15:27:59.142Z,28.60
2017-09-21T15:30:26.655Z,29.20
2017-09-21T15:32:54.175Z,29.50
2017-09-21T15:35:21.732Z,30.00
2017-09-21T15:37:49.287Z,30.30
2017-09-21T15:40:16.850Z,30.70
2017-09-21T15:42:44.393Z,31.30
2017-09-21T15:45:11.975Z,31.80
2017-09-21T15:47:42.413Z,32.80
2017-09-21T15:50:10.178Z,33.90
2017-09-21T15:52:37.779Z,34.60
2017-09-21T15:55:06.134Z,35.60
2017-09-21T15:57:34.449Z,36.10
2017-09-21T16:00:01.998Z,36.10
2017-09-21T16:02:29.755Z,36.90
2017-09-21T16:04:58.051Z,38.30
2017-09-21T16:07:25.697Z,38.30
2017-09-21T16:09:53.373Z,38.80
2017-09-21T16:12:20.898Z,39.20
2017-09-21T16:14:49.170Z,40.20
2017-09-21T16:17:17.500Z,40.60
2017-09-21T16:19:45.247Z,40.60
2017-09-21T16:22:12.761Z,41.20
2017-09-21T16:24:41.146Z,42.20
2017-09-21T16:27:08.670Z,41.60
2017-09-21T16:29:36.192Z,42.10
2017-09-21T16:32:03.711Z,42.30
2017-09-21T16:34:31.400Z,42.70
2017-09-21T16:36:58.921Z,43.00
2017-09-21T16:39:26.439Z,43.10
2017-09-21T16:41:53.994Z,43.70
2017-09-21T16:44:21.502Z,43.90
2017-09-21T16:46:49.020Z,44.10
2017-09-21T16:49:16.559Z,44.30
2017-09-21T16:51:44.221Z,44.50
2017-09-21T16:54:11.756Z,44.90
2017-09-21T16:56:40.078Z,45.70
2017-09-21T16:59:07.591Z,45.60
2017-09-21T17:01:35.150Z,45.80
2017-09-21T17:04:04.099Z,46.30
2017-09-21T17:06:31.620Z,46.40
2017-09-21T17:08:59.144Z,46.60
2017-09-21T17:11:27.442Z,47.00
2017-09-21T17:13:55.011Z,47.50
2017-09-21T17:16:22.532Z,47.40
2017-09-21T17:18:50.845Z,48.00
2017-09-21T17:21:18.369Z,47.90
2017-09-21T17:23:46.639Z,48.20
2017-09-21T17:26:14.935Z,48.60
2017-09-21T17:28:42.448Z,48.50
2017-09-21T17:31:09.995Z,48.80
2017-09-21T17:33:37.524Z,48.90
2017-09-21T17:36:05.056Z,49.20
2017-09-21T17:38:33.333Z,49.80
2017-09-21T17:41:00.866Z,49.80
2017-09-21T17:43:29.159Z,50.20
2017-09-21T17:45:57.477Z,50.50
2017-09-21T17:48:25.043Z,50.50
2017-09-21T17:50:52.560Z,51.10
2017-09-21T17:53:20.075Z,51.40
2017-09-21T17:55:47.603Z,51.80
2017-09-21T17:58:15.123Z,52.30
2017-09-21T18:00:43.411Z,53.10
2017-09-21T18:03:10.957Z,53.10
2017-09-21T18:05:39.248Z,53.70
2017-09-21T18:08:07.028Z,53.70
2017-09-21T18:10:34.563Z,54.40
2017-09-21T18:13:02.089Z,54.30
2017-09-21T18:15:29.611Z,55.20
2017-09-21T18:17:57.125Z,55.00
2017-09-21T18:20:24.656Z,55.40
2017-09-21T18:22:52.193Z,55.70
2017-09-21T18:25:19.827Z,55.90
2017-09-21T18:27:47.381Z,56.30
2017-09-21T18:30:15.054Z,56.70
2017-09-21T18:32:43.021Z,57.00
2017-09-21T18:35:10.612Z,57.30
2017-09-21T18:37:38.119Z,57.60
2017-09-21T18:40:05.980Z,57.90
2017-09-21T18:42:33.563Z,58.00
2017-09-21T18:45:01.100Z,58.30
2017-09-21T18:47:28.807Z,58.50
2017-09-21T18:49:56.324Z,58.70
2017-09-21T18:52:24.177Z,58.90
2017-09-21T18:54:51.906Z,59.00
2017-09-21T18:57:19.462Z,59.40
2017-09-21T18:59:47.826Z,59.70
2017-09-21T19:02:15.372Z,59.60
2017-09-21T19:07:17.175Z,60.10
2017-09-21T19:09:44.691Z,60.10
2017-09-21T19:12:12.241Z,61.00
2017-09-21T19:14:39.776Z,60.50
2017-09-21T19:17:07.299Z,60.80
2017-09-21T19:19:34.844Z,60.90
2017-09-21T19:22:02.380Z,61.30
2017-09-21T19:24:29.916Z,61.30
2017-09-21T19:26:57.439Z,61.60
2017-09-21T19:29:24.967Z,61.80
2017-09-21T19:31:52.493Z,61.70
2017-09-21T19:34:20.041Z,61.80
2017-09-21T19:36:47.572Z,61.80
2017-09-21T19:39:15.323Z,61.80
2017-09-21T19:41:42.889Z,61.80
2017-09-21T19:44:10.447Z,61.80
2017-09-21T19:46:37.980Z,62.00
2017-09-21T19:49:05.580Z,62.10
2017-09-21T19:51:33.864Z,62.30
2017-09-21T19:54:01.451Z,62.30
2017-09-21T19:56:29.099Z,62.60
2017-09-21T19:58:57.011Z,62.90
2017-09-21T20:01:24.581Z,63.10
2017-09-21T20:03:52.104Z,63.30
2017-09-21T20:06:19.645Z,63.40
2017-09-21T20:08:47.158Z,63.50
2017-09-21T20:11:14.772Z,63.50
2017-09-21T20:13:42.322Z,63.70
2017-09-21T20:16:09.907Z,64.10
2017-09-21T20:18:37.418Z,64.20
2017-09-21T20:21:04.992Z,64.40
2017-09-21T20:23:32.532Z,64.40
2017-09-21T20:26:00.064Z,64.40
2017-09-21T20:28:27.615Z,64.60
2017-09-21T20:30:55.128Z,64.70
2017-09-21T20:33:22.676Z,64.70
2017-09-21T20:35:50.201Z,64.80
2017-09-21T20:38:18.483Z,64.60
2017-09-21T20:40:46.832Z,64.70
2017-09-21T20:43:14.338Z,64.50
2017-09-21T20:45:41.905Z,64.80
2017-09-21T20:48:09.577Z,64.80
2017-09-21T20:50:37.138Z,65.10
2017-09-21T20:53:04.664Z,65.30
2017-09-21T20:55:32.957Z,65.90
2017-09-21T20:58:00.600Z,65.90
2017-09-21T21:00:28.123Z,66.20
2017-09-21T21:02:55.657Z,66.20
2017-09-21T21:05:23.188Z,66.30
2017-09-21T21:07:50.730Z,66.40
2017-09-21T21:10:18.256Z,66.30
2017-09-21T21:12:45.832Z,66.50
2017-09-21T21:15:14.189Z,66.90
2017-09-21T21:17:41.714Z,66.90
2017-09-21T21:20:09.256Z,67.20
2017-09-21T21:22:36.807Z,67.30
2017-09-21T21:25:04.679Z,67.40
2017-09-21T21:27:32.197Z,67.60
2017-09-21T21:30:00.502Z,67.50
2017-09-21T21:32:28.015Z,67.50
2017-09-21T21:34:55.616Z,67.50
2017-09-21T21:37:23.140Z,67.60
2017-09-21T21:39:50.770Z,67.50
2017-09-21T21:42:18.303Z,67.70
2017-09-21T21:44:45.838Z,67.90
2017-09-21T21:47:13.399Z,68.10
2017-09-21T21:49:41.672Z,68.10
2017-09-21T21:52:09.969Z,68.10
2017-09-21T21:54:37.502Z,68.10
2017-09-21T21:57:05.846Z,68.20
2017-09-21T21:59:33.367Z,68.20
2017-09-21T22:02:00.899Z,68.50
2017-09-21T22:04:28.442Z,68.60
2017-09-21T22:06:56.732Z,68.70
2017-09-21T22:09:24.284Z,68.70
2017-09-21T22:11:52.581Z,69.10
2017-09-21T22:14:20.110Z,69.10
2017-09-21T22:16:48.396Z,69.20
2017-09-21T22:19:15.974Z,69.20
2017-09-21T22:21:43.507Z,69.40
2017-09-21T22:24:11.779Z,69.80
2017-09-21T22:26:40.080Z,69.90
2017-09-21T22:29:07.600Z,69.90
2017-09-21T22:31:35.959Z,70.20
2017-09-21T22:34:03.516Z,70.10
2017-09-21T22:36:31.050Z,70.30
2017-09-21T22:38:58.590Z,70.40
2017-09-21T22:41:26.140Z,70.50
2017-09-21T22:43:53.668Z,70.60
2017-09-21T22:46:21.966Z,70.90
2017-09-21T22:48:49.517Z,70.80
2017-09-21T22:51:17.047Z,70.90
2017-09-21T22:53:44.593Z,71.00
2017-09-21T22:56:12.128Z,70.70
2017-09-21T22:58:39.653Z,71.00
2017-09-21T23:01:07.178Z,71.10
2017-09-21T23:03:35.458Z,71.00
2017-09-21T23:06:03.758Z,71.00
2017-09-21T23:08:31.291Z,71.00
2017-09-21T23:10:59.578Z,71.40
2017-09-21T23:13:27.908Z,71.30
2017-09-21T23:15:55.443Z,71.20
2017-09-21T23:18:22.973Z,71.50
2017-09-21T23:20:50.491Z,71.40
2017-09-21T23:23:18.021Z,71.30
2017-09-21T23:25:45.572Z,71.50
2017-09-21T23:28:13.113Z,71.60
2017-09-21T23:30:40.626Z,71.60
2017-09-21T23:33:08.187Z,71.70
2017-09-21T23:35:35.710Z,71.70
2017-09-21T23:38:03.210Z,71.70
2017-09-21T23:40:30.767Z,71.90
2017-09-21T23:42:58.344Z,71.90
2017-09-21T23:45:26.657Z,72.00
2017-09-21T23:47:54.163Z,71.90
2017-09-21T23:50:22.474Z,72.10
2017-09-21T23:52:49.984Z,72.10
2017-09-21T23:55:17.608Z,72.10
2017-09-21T23:57:45.142Z,72.20
